Norwegian Crown — C6II4 — position and weather

sailwx.info

Track history (hours):
 
Tides and Currents Weather Stations Pressure Air Temp Water Temp Dewpoint Dewpoint Depression Visibility Wind Speed Wind Dir Waves Ship Positions

Norwegian Crown

Operator: Norwegian Cruise Line

Last reported at 2019-May-20 02:26 UTC. Time now 2019-May-20 03:12 UTC.
Position N 55°14' E 013°18'.

Type: Ship. MMSI: 308785000.

Date/timePositionNaut miles runAvg speedWind from/ knotsBaromVisibWave heightAir tempDewpointWater temp
2019-May-20 02:26N 55°14' E 013°18'3414.5
2019-May-20 00:03N 55°15' E 014°18'116.8
2019-May-20 00:00N 55°16' E 014°19'1016.4
2019-May-19 23:23N 55°24' E 014°31'616.0
2019-May-19 23:00N 55°28' E 014°38'816.1
2019-May-19 22:31N 55°32' E 014°51'816.3
2019-May-19 22:00N 55°35' E 015°04'816.3
2019-May-19 21:31N 55°39' E 015°17'816.2
2019-May-19 21:01N 55°43' E 015°29'816.2
2019-May-19 20:31N 55°47' E 015°42'816.4
2019-May-19 20:01N 55°51' E 015°54'816.3
2019-May-19 19:31N 55°55' E 016°07'816.2
2019-May-19 19:01N 55°59' E 016°19'816.3
2019-May-19 18:31N 56°03' E 016°32'816.2
2019-May-19 18:01N 56°08' E 016°44'816.1
2019-May-19 17:31N 56°12' E 016°56'1116.0
2019-May-19 16:51N 56°19' E 017°11'715.9
2019-May-19 16:25N 56°23' E 017°21'816.0
2019-May-19 15:54N 56°28' E 017°33'716.1
2019-May-19 15:29N 56°32' E 017°42'18415.8
2019-May-19 03:48N 58°55' E 021°19'516.3
2019-May-19 03:31N 58°59' E 021°24'816.3
2019-May-19 03:01N 59°06' E 021°33'816.5
2019-May-19 02:31N 59°12' E 021°44'816.4
2019-May-19 02:00N 59°17' E 021°56'816.0
2019-May-19 01:31N 59°22' E 022°08'816.0
2019-May-19 01:01N 59°27' E 022°21'815.7
2019-May-19 00:31N 59°31' E 022°35'815.7
2019-May-19 00:01N 59°33' E 022°50'815.9
2019-May-18 23:31N 59°35' E 023°05'815.9
2019-May-18 23:01N 59°36' E 023°20'815.8
2019-May-18 22:31N 59°38' E 023°36'816.0
2019-May-18 22:01N 59°39' E 023°51'815.8
2019-May-18 21:31N 59°40' E 024°07'815.9
2019-May-18 21:01N 59°39' E 024°22'815.9
2019-May-18 20:31N 59°38' E 024°38'713.7
2019-May-18 20:00N 59°32' E 024°44'5 9.4
2019-May-18 19:30N 59°27' E 024°46'0 0.0
2019-May-18 19:00N 59°27' E 024°46'0 0.0
2019-May-18 18:30N 59°27' E 024°46'0 0.0
2019-May-18 18:00N 59°27' E 024°46'0 0.0
2019-May-18 17:30N 59°27' E 024°46'0 0.0
2019-May-18 17:00N 59°27' E 024°46'0 0.0
2019-May-18 16:30N 59°27' E 024°46'0 0.0
2019-May-18 16:00N 59°27' E 024°46'0 0.0
2019-May-18 15:30N 59°27' E 024°46'0 0.0
2019-May-18 15:00N 59°27' E 024°46'0 0.0
2019-May-18 14:30N 59°27' E 024°46'0 0.0
2019-May-18 14:00N 59°27' E 024°46'0 0.0
2019-May-18 13:30N 59°27' E 024°46'0 0.0
2019-May-18 13:00N 59°27' E 024°46'0 0.0
2019-May-18 12:30N 59°27' E 024°46'0 0.0
2019-May-18 12:00N 59°27' E 024°46'0 0.0
2019-May-18 11:30N 59°27' E 024°46'0 0.0
2019-May-18 11:00N 59°27' E 024°46'0 0.0
2019-May-18 09:14N 59°27' E 024°46'0 0.1
2019-May-18 08:59N 59°27' E 024°46'0 0.0
2019-May-18 08:29N 59°27' E 024°46'0 0.0
2019-May-18 07:59N 59°27' E 024°46'0 0.0
2019-May-18 07:29N 59°27' E 024°46'0 0.0
2019-May-18 06:59N 59°27' E 024°46'0 0.0
2019-May-18 06:29N 59°27' E 024°46'0 0.1
2019-May-18 06:00N 59°27' E 024°46'2 4.2
2019-May-18 05:31N 59°29' E 024°45'815.4
2019-May-18 05:00N 59°36' E 024°40'510.6
2019-May-18 04:30N 59°42' E 024°39'611.3
2019-May-18 04:00N 59°47' E 024°43'510.8
2019-May-18 03:30N 59°50' E 024°53'611.4
2019-May-18 03:00N 59°51' E 025°03'611.4
2019-May-18 02:30N 59°52' E 025°15'612.7
2019-May-18 02:01N 59°52' E 025°27'816.5
2019-May-18 01:31N 59°54' E 025°44'816.1
2019-May-18 01:00N 59°57' E 025°59'815.6
2019-May-18 00:30N 59°59' E 026°14'815.7
2019-May-18 00:00N 60°01' E 026°29'815.3
2019-May-17 23:30N 60°01' E 026°44'815.4
2019-May-17 23:00N 59°60' E 026°59'815.2
2019-May-17 22:30N 60°02' E 027°13'815.6
2019-May-17 22:00N 60°06' E 027°27'815.8
2019-May-17 21:31N 60°10' E 027°40'714.7
2019-May-17 21:00N 60°11' E 027°55'815.2
2019-May-17 20:30N 60°09' E 028°10'815.1
2019-May-17 20:00N 60°06' E 028°23'715.0
2019-May-17 19:30N 60°03' E 028°37'815.4
2019-May-17 19:00N 60°03' E 028°53'815.2
2019-May-17 18:30N 60°02' E 029°08'714.2
2019-May-17 18:00N 60°02' E 029°22'510.5
2019-May-17 17:29N 60°01' E 029°33'611.5
2019-May-17 16:58N 59°59' E 029°44'510.9
2019-May-17 16:30N 59°57' E 029°53'5 9.8
2019-May-17 16:01N 59°56' E 030°03'4 8.8
2019-May-17 15:30N 59°57' E 030°11'0 0.2
2019-May-17 14:56N 59°57' E 030°11'0 0.0
2019-May-17 14:26N 59°57' E 030°11'0 0.0
2019-May-17 13:56N 59°57' E 030°11'0 0.0
2019-May-17 13:26N 59°57' E 030°11'0 0.0
2019-May-17 12:56N 59°57' E 030°11'0 0.0
2019-May-17 12:26N 59°57' E 030°11'0 0.0
2019-May-17 11:56N 59°57' E 030°11'0 0.0
2019-May-17 11:26N 59°57' E 030°11'0 0.0
2019-May-17 10:56N 59°57' E 030°11'0 0.0
2019-May-17 10:26N 59°57' E 030°11'0 0.0
2019-May-17 09:56N 59°57' E 030°11'0 0.0
2019-May-17 09:26N 59°57' E 030°11'0 0.0
2019-May-17 08:56N 59°57' E 030°11'0 0.0
2019-May-17 08:26N 59°57' E 030°11'0 0.0
2019-May-17 07:56N 59°57' E 030°11'0 0.0
2019-May-17 07:26N 59°57' E 030°11'0 0.0
2019-May-17 06:56N 59°57' E 030°11'0 0.0
2019-May-17 06:26N 59°57' E 030°11'0 0.0
2019-May-17 05:56N 59°57' E 030°11'0 0.0
2019-May-17 05:26N 59°57' E 030°11'0 0.0
2019-May-17 04:56N 59°57' E 030°11'0 0.0
2019-May-17 04:26N 59°57' E 030°11'0 0.0
2019-May-17 03:56N 59°57' E 030°11'0 0.0
2019-May-17 03:26N 59°57' E 030°11'0 0.0
2019-May-17 02:56N 59°57' E 030°11'0 0.0
2019-May-17 02:26N 59°57' E 030°11'0 0.0
2019-May-17 01:56N 59°57' E 030°11'0 0.0
2019-May-17 01:26N 59°57' E 030°11'0 0.0
2019-May-17 00:56N 59°57' E 030°11'0 0.0
2019-May-17 00:26N 59°57' E 030°11'0 0.0
2019-May-16 23:56N 59°57' E 030°11'0 0.0
2019-May-16 23:26N 59°57' E 030°11'0 0.0
2019-May-16 22:56N 59°57' E 030°11'0 0.0
2019-May-16 22:26N 59°57' E 030°11'0 0.0
2019-May-16 21:56N 59°57' E 030°11'0 0.0
2019-May-16 21:26N 59°57' E 030°11'0 0.0
2019-May-16 20:56N 59°57' E 030°11'0 0.0
2019-May-16 20:26N 59°57' E 030°11'0 0.0
2019-May-16 19:56N 59°57' E 030°11'0 0.0
2019-May-16 19:26N 59°57' E 030°11'0 0.0
2019-May-16 18:56N 59°57' E 030°11'0 0.0
2019-May-16 18:26N 59°57' E 030°11'0 0.0
2019-May-16 17:59N 59°57' E 030°11'0 0.0
2019-May-16 17:28N 59°57' E 030°11'0 0.0
2019-May-16 16:58N 59°57' E 030°11'0 0.0
2019-May-16 16:28N 59°57' E 030°11'0 0.0
2019-May-16 15:58N 59°57' E 030°11'0 0.0
2019-May-16 15:25N 59°57' E 030°11'0 0.0
2019-May-16 14:52N 59°57' E 030°11'0 0.0
2019-May-16 14:28N 59°57' E 030°11'0 0.0
2019-May-16 13:58N 59°57' E 030°11'0 0.0
2019-May-16 13:28N 59°57' E 030°11'0 0.0
2019-May-16 12:58N 59°57' E 030°11'0 0.0
2019-May-16 12:28N 59°57' E 030°11'0 0.0
2019-May-16 11:58N 59°57' E 030°11'0 0.0
2019-May-16 11:25N 59°57' E 030°11'0 0.0
2019-May-16 10:58N 59°57' E 030°11'0 0.0
2019-May-16 10:28N 59°57' E 030°11'0 0.0
2019-May-16 09:58N 59°57' E 030°11'0 0.0
2019-May-16 09:28N 59°57' E 030°11'0 0.0
2019-May-16 08:58N 59°57' E 030°11'0 0.0
2019-May-16 08:28N 59°57' E 030°11'0 0.0
2019-May-16 07:58N 59°57' E 030°11'0 0.0
2019-May-16 07:28N 59°57' E 030°11'0 0.0
2019-May-16 06:58N 59°57' E 030°11'0 0.0
2019-May-16 06:28N 59°57' E 030°11'0 0.0
2019-May-16 05:58N 59°57' E 030°11'0 0.0
2019-May-16 05:28N 59°57' E 030°11'0 0.0
2019-May-16 04:58N 59°57' E 030°11'0 0.0
2019-May-16 04:25N 59°57' E 030°11'0 0.2
2019-May-16 04:00N 59°57' E 030°11'3 5.0
2019-May-16 03:30N 59°57' E 030°06'5 9.4
2019-May-16 03:00N 59°56' E 029°57'710.3
2019-May-16 02:21N 59°59' E 029°45'410.7
2019-May-16 02:00N 60°00' E 029°38'611.5
2019-May-16 01:30N 60°01' E 029°27'510.5
2019-May-16 01:01N 60°02' E 029°17'510.1
2019-May-16 00:31N 60°02' E 029°06'510.2
2019-May-16 00:00N 60°02' E 028°56'510.3
2019-May-15 23:30N 60°02' E 028°46'510.7
2019-May-15 23:00N 60°02' E 028°35'510.6
2019-May-15 22:30N 60°03' E 028°25'510.7
2019-May-15 22:00N 60°07' E 028°16'510.1
2019-May-15 21:30N 60°08' E 028°07'510.8
2019-May-15 21:01N 60°10' E 027°56'510.6
2019-May-15 20:30N 60°11' E 027°46'611.0
2019-May-15 20:00N 60°08' E 027°36'510.9
2019-May-15 19:31N 60°05' E 027°27'510.9
2019-May-15 19:00N 60°02' E 027°17'510.7
2019-May-15 18:31N 59°59' E 027°08'714.4
2019-May-15 18:01N 59°58' E 026°54'816.1
2019-May-15 17:30N 59°59' E 026°38'816.1
2019-May-15 17:00N 59°57' E 026°22'2316.0
2019-May-15 15:36N 59°52' E 025°39'115.8
2019-May-15 15:31N 59°52' E 025°36'815.7
2019-May-15 15:01N 59°55' E 025°21'815.8
2019-May-15 14:31N 59°55' E 025°05'510.9
2019-May-15 14:00N 59°59' E 024°57'612.7
2019-May-15 13:30N 60°05' E 024°58'5 9.6
2019-May-15 13:01N 60°10' E 024°59'0 0.4
2019-May-15 12:29N 60°10' E 024°58'0 0.0
2019-May-15 11:59N 60°10' E 024°58'0 0.0
2019-May-15 11:29N 60°10' E 024°58'0 0.0
2019-May-15 10:59N 60°10' E 024°58'0 0.0
2019-May-15 10:29N 60°10' E 024°58'0 0.1
2019-May-15 10:23N 60°10' E 024°58'0 0.0
2019-May-15 09:59N 60°10' E 024°58'0 0.0
2019-May-15 09:29N 60°10' E 024°58'0 0.2
2019-May-15 09:20N 60°10' E 024°58'0 0.0
2019-May-15 09:07N 60°10' E 024°58'0 0.3
2019-May-15 09:00N 60°10' E 024°58'0 2.0
2019-May-15 08:59N 60°10' E 024°58'3 5.5
2019-May-15 08:30N 60°09' E 025°04'0 3.6
2019-May-15 08:30N 60°09' E 025°04'389.1
2019-May-15 08:29N 60°10' E 024°58'2 4.1
2019-May-15 08:00N 60°08' E 024°60'024.1
2019-May-15 08:00N 60°08' E 024°60'264.9
2019-May-15 07:59N 60°10' E 024°58'0 0.1
2019-May-15 07:29N 60°10' E 024°58'0 3.0
2019-May-15 07:29N 60°10' E 024°58'0 2.5
2019-May-15 07:28N 60°10' E 024°58'0 0.1
2019-May-15 06:59N 60°10' E 024°58'0 0.0
2019-May-15 06:29N 60°10' E 024°58'0 2.2
2019-May-15 06:27N 60°10' E 024°58'0 0.0
2019-May-15 06:14N 60°10' E 024°58'0 0.3
2019-May-15 05:59N 60°10' E 024°58'0 1.4
2019-May-15 05:59N 60°10' E 024°58'0 0.3
2019-May-15 05:54N 60°10' E 024°58'0 0.1
2019-May-15 05:29N 60°10' E 024°58'0 0.1
2019-May-15 05:27N 60°10' E 024°58'0 0.2
2019-May-15 05:26N 60°10' E 024°58'0 0.0
2019-May-15 04:59N 60°10' E 024°58'0 0.0
2019-May-15 04:29N 60°10' E 024°58'0 0.8
2019-May-15 04:00N 60°10' E 024°59'3 6.9
2019-May-15 03:31N 60°06' E 024°59'713.3
2019-May-15 03:01N 59°60' E 024°57'713.9
2019-May-15 02:30N 59°53' E 024°57'510.0
2019-May-15 02:00N 59°48' E 024°54'510.6
2019-May-15 01:30N 59°46' E 024°44'510.6
2019-May-15 01:01N 59°45' E 024°34'510.5
2019-May-15 00:31N 59°44' E 024°24'510.3
2019-May-15 00:00N 59°41' E 024°15'510.4
2019-May-14 23:30N 59°39' E 024°06'510.7
2019-May-14 23:00N 59°39' E 023°55'510.5
2019-May-14 22:30N 59°37' E 023°45'510.5
2019-May-14 22:00N 59°35' E 023°35'510.6
2019-May-14 21:30N 59°34' E 023°25'510.8
2019-May-14 21:00N 59°33' E 023°15'510.6
2019-May-14 20:30N 59°31' E 023°05'510.6
2019-May-14 20:00N 59°30' E 022°55'510.9
2019-May-14 19:30N 59°28' E 022°45'510.7
2019-May-14 19:00N 59°26' E 022°35'510.8
2019-May-14 18:30N 59°23' E 022°26'612.5
2019-May-14 18:01N 59°24' E 022°14'815.9
2019-May-14 17:31N 59°27' E 021°59'815.7
2019-May-14 17:00N 59°29' E 021°44'815.5
2019-May-14 16:31N 59°31' E 021°29'815.6
2019-May-14 16:01N 59°33' E 021°15'1015.7
2019-May-14 15:24N 59°36' E 020°57'3215.3
2019-May-14 13:20N 59°45' E 019°57'515.8
2019-May-14 13:01N 59°46' E 019°47'815.5
2019-May-14 12:31N 59°47' E 019°32'713.4
2019-May-14 12:00N 59°45' E 019°18'714.8
2019-May-14 11:30N 59°43' E 019°05'612.3
2019-May-14 11:00N 59°39' E 018°55'611.5
2019-May-14 10:30N 59°36' E 018°45'611.0
2019-May-14 09:59N 59°33' E 018°36'5 9.6
2019-May-14 09:30N 59°30' E 018°28'4 7.5
2019-May-14 09:00N 59°27' E 018°25'4 7.4
2019-May-14 08:30N 59°23' E 018°27'111.6
2019-May-14 08:26N 59°22' E 018°27'3 7.2
2019-May-14 08:00N 59°22' E 018°21'511.6
2019-May-14 07:36N 59°20' E 018°12'110.3
2019-May-14 07:30N 59°19' E 018°11'015.9
2019-May-14 07:30N 59°19' E 018°10'3 5.3
2019-May-14 06:58N 59°19' E 018°05'0 0.0
2019-May-14 06:28N 59°19' E 018°05'0 0.0
2019-May-14 05:58N 59°19' E 018°05'0 0.0
2019-May-14 05:28N 59°19' E 018°05'0 0.0
2019-May-14 04:58N 59°19' E 018°05'0 0.0
2019-May-14 04:28N 59°19' E 018°05'0 0.0
2019-May-14 03:58N 59°19' E 018°05'0 0.0
2019-May-14 03:28N 59°19' E 018°05'0 0.0
2019-May-14 02:58N 59°19' E 018°05'0 0.0
2019-May-14 02:28N 59°19' E 018°05'0 0.0
2019-May-14 01:58N 59°19' E 018°05'0 0.0
2019-May-14 01:28N 59°19' E 018°05'0 0.0
2019-May-14 00:58N 59°19' E 018°05'0 0.0
2019-May-14 00:28N 59°19' E 018°05'0 0.0
2019-May-13 23:58N 59°19' E 018°05'0 0.0
2019-May-13 23:28N 59°19' E 018°05'0 0.0
2019-May-13 22:58N 59°19' E 018°05'0 0.0
2019-May-13 22:28N 59°19' E 018°05'0 0.0
2019-May-13 21:58N 59°19' E 018°05'0 0.0
2019-May-13 21:28N 59°19' E 018°05'0 0.0
2019-May-13 20:58N 59°19' E 018°05'0 0.0
2019-May-13 20:28N 59°19' E 018°05'0 0.0
2019-May-13 19:58N 59°19' E 018°05'0 0.0
2019-May-13 19:28N 59°19' E 018°05'0 0.0
2019-May-13 18:58N 59°19' E 018°05'0 0.0
2019-May-13 18:28N 59°19' E 018°05'0 0.0
2019-May-13 17:58N 59°19' E 018°05'0 0.0
2019-May-13 17:28N 59°19' E 018°05'0 0.0
2019-May-13 16:58N 59°19' E 018°05'0 0.0
2019-May-13 16:28N 59°19' E 018°05'0 5.6
2019-May-13 16:27N 59°19' E 018°05'0 0.0
2019-May-13 16:00N 59°19' E 018°05'0 3.2
2019-May-13 15:58N 59°19' E 018°05'0 0.6
2019-May-13 15:30N 59°19' E 018°05'0 8.8
2019-May-13 15:28N 59°19' E 018°05'0 0.0
2019-May-13 14:58N 59°19' E 018°05'058.7
2019-May-13 14:58N 59°19' E 018°05'0 0.0
2019-May-13 14:30N 59°19' E 018°05'0 8.9
2019-May-13 14:28N 59°19' E 018°05'0 0.1
2019-May-13 14:07N 59°19' E 018°05'0 0.1
2019-May-13 14:00N 59°19' E 018°05'031.7
2019-May-13 14:00N 59°19' E 018°05'0 2.1
2019-May-13 13:58N 59°19' E 018°05'0 0.0
2019-May-13 13:30N 59°19' E 018°05'0 0.4
2019-May-13 13:28N 59°19' E 018°05'0 0.6
2019-May-13 13:25N 59°19' E 018°05'2 4.5
2019-May-13 13:00N 59°19' E 018°09'013.4
2019-May-13 13:00N 59°19' E 018°09'271.1
2019-May-13 12:58N 59°19' E 018°05'0 0.0
2019-May-13 12:28N 59°19' E 018°05'246.5
2019-May-13 12:25N 59°19' E 018°09'014.6
2019-May-13 12:25N 59°19' E 018°09'2 5.4
2019-May-13 12:00N 59°19' E 018°05'0 0.3
2019-May-13 11:58N 59°19' E 018°05'0 9.3
2019-May-13 11:58N 59°19' E 018°05'0 0.0
2019-May-13 11:30N 59°19' E 018°05'0 0.0
2019-May-13 11:30N 59°19' E 018°05'0 0.5
2019-May-13 11:28N 59°19' E 018°05'0 0.0
2019-May-13 10:58N 59°19' E 018°05'0 1.8
2019-May-13 10:57N 59°19' E 018°05'0 0.2
2019-May-13 10:44N 59°19' E 018°05'0 0.7
2019-May-13 10:30N 59°19' E 018°05'0 4.5
2019-May-13 10:28N 59°19' E 018°05'0 0.0
2019-May-13 09:58N 59°19' E 018°05'0 0.4
2019-May-13 09:46N 59°19' E 018°05'0 0.3
2019-May-13 09:28N 59°19' E 018°05'0 0.0
2019-May-13 08:58N 59°19' E 018°05'0 0.0
2019-May-13 08:28N 59°19' E 018°05'0 0.0
2019-May-13 07:58N 59°19' E 018°05'0 0.0
2019-May-13 07:28N 59°19' E 018°05'0 0.0
2019-May-13 07:00N 59°19' E 018°05'2 4.0
2019-May-13 06:30N 59°19' E 018°09'611.4
2019-May-13 06:01N 59°23' E 018°18'5 9.6
2019-May-13 05:31N 59°22' E 018°27'5 9.7
2019-May-13 05:00N 59°27' E 018°25'612.0
2019-May-13 04:30N 59°23' E 018°34'612.3
2019-May-13 04:00N 59°22' E 018°46'612.4
2019-May-13 03:30N 59°17' E 018°54'611.7
2019-May-13 03:00N 59°14' E 019°04'5 9.2
2019-May-13 02:27N 59°10' E 019°10'510.1
2019-May-13 01:57N 59°05' E 019°08'17010.4
2019-May-12 09:35N 56°28' E 017°07'111.4
2019-May-12 09:29N 56°27' E 017°07'611.5
2019-May-12 09:00N 56°22' E 017°03'611.5
2019-May-12 08:30N 56°17' E 016°59'611.5
2019-May-12 08:00N 56°11' E 016°56'611.5
2019-May-12 07:30N 56°06' E 016°52'611.0
2019-May-12 07:00N 56°02' E 016°45'611.6
2019-May-12 06:30N 55°59' E 016°36'611.5
2019-May-12 06:00N 55°56' E 016°27'611.5
2019-May-12 05:30N 55°53' E 016°18'611.6
2019-May-12 05:00N 55°50' E 016°09'611.5
2019-May-12 04:30N 55°47' E 016°00'611.6
2019-May-12 04:00N 55°44' E 015°52'611.4
2019-May-12 03:30N 55°42' E 015°43'611.3
2019-May-12 03:00N 55°39' E 015°34'611.4
2019-May-12 02:30N 55°37' E 015°25'611.4
2019-May-12 02:00N 55°34' E 015°16'611.4
2019-May-12 01:30N 55°32' E 015°07'611.4
2019-May-12 01:00N 55°29' E 014°57'611.4
2019-May-12 00:30N 55°27' E 014°48'611.4
2019-May-12 00:00N 55°24' E 014°39'711.4
2019-May-11 23:23N 55°19' E 014°32'411.4
2019-May-11 23:00N 55°15' E 014°27'611.4
2019-May-11 22:30N 55°11' E 014°20'610.3
2019-May-11 21:54N 55°10' E 014°09'18991826.4
2019-May-11 20:52N 27°36' E 034°51'19241366.5
2019-May-11 19:27N 55°13' E 013°08'715.8
2019-May-11 19:00N 55°14' E 012°56'815.8
2019-May-11 18:31N 55°17' E 012°43'713.0
2019-May-11 18:00N 55°23' E 012°39'714.4
2019-May-11 17:30N 55°30' E 012°42'611.4
2019-May-11 17:00N 55°36' E 012°42'612.7
2019-May-11 16:30N 55°42' E 012°41'3 5.5
2019-May-11 16:00N 55°42' E 012°36'0 0.1
2019-May-11 15:29N 55°42' E 012°36'0 0.0
2019-May-11 14:59N 55°42' E 012°36'0 0.0
2019-May-11 14:29N 55°42' E 012°36'0 0.6
2019-May-11 14:25N 55°42' E 012°36'0 0.4
2019-May-11 14:02N 55°42' E 012°36'015.5
2019-May-11 14:00N 55°42' E 012°36'122.5
2019-May-11 13:59N 55°42' E 012°36'1 2.0
2019-May-11 13:37N 55°41' E 012°36'1 5.2
2019-May-11 13:29N 55°42' E 012°36'0 6.1
2019-May-11 13:26N 55°42' E 012°36'0 9.1
2019-May-11 13:25N 55°42' E 012°36'0 0.4
2019-May-11 13:00N 55°42' E 012°36'017.4
2019-May-11 12:59N 55°42' E 012°36'155.0
2019-May-11 12:58N 55°42' E 012°36'3 6.4
2019-May-11 12:30N 55°40' E 012°41'063.8
2019-May-11 12:30N 55°40' E 012°41'3122.0
2019-May-11 12:29N 55°42' E 012°36'0 0.0
2019-May-11 11:59N 55°42' E 012°36'0 1.7
2019-May-11 11:58N 55°42' E 012°36'0 0.1
2019-May-11 11:29N 55°42' E 012°36'0 0.0
2019-May-11 10:59N 55°42' E 012°36'0 0.0
2019-May-11 10:29N 55°42' E 012°36'0 0.0
2019-May-11 09:59N 55°42' E 012°36'0 0.1
2019-May-11 09:29N 55°42' E 012°36'018.5
2019-May-11 09:29N 55°42' E 012°36'0 0.1
2019-May-11 08:59N 55°42' E 012°36'0 3.8
2019-May-11 08:59N 55°42' E 012°36'0 0.0
2019-May-11 08:29N 55°42' E 012°36'0 0.1
2019-May-11 08:05N 55°42' E 012°36'0 0.4
2019-May-11 08:00N 55°42' E 012°36'0 4.0
2019-May-11 07:59N 55°42' E 012°36'0 0.0
2019-May-11 07:29N 55°42' E 012°36'0 0.0
2019-May-11 06:59N 55°42' E 012°36'0 0.0
2019-May-11 06:29N 55°42' E 012°36'0 0.8
2019-May-11 06:00N 55°42' E 012°37'5 9.5
2019-May-11 05:30N 55°46' E 012°41'612.4
2019-May-11 05:01N 55°52' E 012°40'713.2
2019-May-11 04:31N 55°59' E 012°41'713.5
2019-May-11 04:01N 56°05' E 012°35'714.8
2019-May-11 03:30N 56°10' E 012°25'5114.6
2019-May-11 00:03N 56°55' E 011°45'117.6
2019-May-10 23:59N 56°56' E 011°44'817.3
2019-May-10 23:31N 57°04' E 011°40'917.3
2019-May-10 23:01N 57°12' E 011°35'917.4
2019-May-10 22:31N 57°20' E 011°29'917.2
2019-May-10 22:01N 57°28' E 011°21'917.2
2019-May-10 21:31N 57°34' E 011°09'917.6
2019-May-10 21:01N 57°40' E 010°58'917.3
2019-May-10 20:31N 57°46' E 010°46'917.1
2019-May-10 20:01N 57°51' E 010°33'918.4
2019-May-10 19:31N 57°50' E 010°16'918.2
2019-May-10 19:00N 57°48' E 009°59'917.9
2019-May-10 18:30N 57°45' E 009°43'917.8
2019-May-10 18:00N 57°43' E 009°27'917.8
2019-May-10 17:30N 57°40' E 009°11'917.7
2019-May-10 17:01N 57°38' E 008°55'917.7
2019-May-10 16:31N 57°35' E 008°39'917.5
2019-May-10 16:00N 57°32' E 008°24'917.1
2019-May-10 15:30N 57°29' E 008°10'816.8
2019-May-10 15:00N 57°26' E 007°55'816.7
2019-May-10 14:30N 57°23' E 007°41'816.2
2019-May-10 14:01N 57°20' E 007°27'816.4
2019-May-10 13:30N 57°17' E 007°12'816.3
2019-May-10 13:01N 57°14' E 006°58'816.5
2019-May-10 12:30N 57°12' E 006°44'816.3
2019-May-10 12:00N 57°09' E 006°30'1116.1
2019-May-10 11:19N 57°05' E 006°11'516.1
2019-May-10 11:00N 57°03' E 006°02'  
Track history (hours):
 
Tides and Currents Weather Stations Pressure Air Temp Water Temp Dewpoint Dewpoint Depression Visibility Wind Speed Wind Dir Waves Ship Positions

Norwegian Crown

Operator: Norwegian Cruise Line

Last reported at 2019-May-20 02:26 UTC. Time now 2019-May-20 03:12 UTC.
Position N 55°14' E 013°18'.

Type: Ship. MMSI: 308785000.

Date/timePositionNaut miles runAvg speedWind from/ knotsBaromVisibWave heightAir tempDewpointWater temp
2019-May-20 02:26N 55°14' E 013°18'3414.5
2019-May-20 00:03N 55°15' E 014°18'116.8
2019-May-20 00:00N 55°16' E 014°19'1016.4
2019-May-19 23:23N 55°24' E 014°31'616.0
2019-May-19 23:00N 55°28' E 014°38'816.1
2019-May-19 22:31N 55°32' E 014°51'816.3
2019-May-19 22:00N 55°35' E 015°04'816.3
2019-May-19 21:31N 55°39' E 015°17'816.2
2019-May-19 21:01N 55°43' E 015°29'816.2
2019-May-19 20:31N 55°47' E 015°42'816.4
2019-May-19 20:01N 55°51' E 015°54'816.3
2019-May-19 19:31N 55°55' E 016°07'816.2
2019-May-19 19:01N 55°59' E 016°19'816.3
2019-May-19 18:31N 56°03' E 016°32'816.2
2019-May-19 18:01N 56°08' E 016°44'816.1
2019-May-19 17:31N 56°12' E 016°56'1116.0
2019-May-19 16:51N 56°19' E 017°11'715.9
2019-May-19 16:25N 56°23' E 017°21'816.0
2019-May-19 15:54N 56°28' E 017°33'716.1
2019-May-19 15:29N 56°32' E 017°42'18415.8
2019-May-19 03:48N 58°55' E 021°19'516.3
2019-May-19 03:31N 58°59' E 021°24'816.3
2019-May-19 03:01N 59°06' E 021°33'816.5
2019-May-19 02:31N 59°12' E 021°44'816.4
2019-May-19 02:00N 59°17' E 021°56'816.0
2019-May-19 01:31N 59°22' E 022°08'816.0
2019-May-19 01:01N 59°27' E 022°21'815.7
2019-May-19 00:31N 59°31' E 022°35'815.7
2019-May-19 00:01N 59°33' E 022°50'815.9
2019-May-18 23:31N 59°35' E 023°05'815.9
2019-May-18 23:01N 59°36' E 023°20'815.8
2019-May-18 22:31N 59°38' E 023°36'816.0
2019-May-18 22:01N 59°39' E 023°51'815.8
2019-May-18 21:31N 59°40' E 024°07'815.9
2019-May-18 21:01N 59°39' E 024°22'815.9
2019-May-18 20:31N 59°38' E 024°38'713.7
2019-May-18 20:00N 59°32' E 024°44'5 9.4
2019-May-18 19:30N 59°27' E 024°46'0 0.0
2019-May-18 19:00N 59°27' E 024°46'0 0.0
2019-May-18 18:30N 59°27' E 024°46'0 0.0
2019-May-18 18:00N 59°27' E 024°46'0 0.0
2019-May-18 17:30N 59°27' E 024°46'0 0.0
2019-May-18 17:00N 59°27' E 024°46'0 0.0
2019-May-18 16:30N 59°27' E 024°46'0 0.0
2019-May-18 16:00N 59°27' E 024°46'0 0.0
2019-May-18 15:30N 59°27' E 024°46'0 0.0
2019-May-18 15:00N 59°27' E 024°46'0 0.0
2019-May-18 14:30N 59°27' E 024°46'0 0.0
2019-May-18 14:00N 59°27' E 024°46'0 0.0
2019-May-18 13:30N 59°27' E 024°46'0 0.0
2019-May-18 13:00N 59°27' E 024°46'0 0.0
2019-May-18 12:30N 59°27' E 024°46'0 0.0
2019-May-18 12:00N 59°27' E 024°46'0 0.0
2019-May-18 11:30N 59°27' E 024°46'0 0.0
2019-May-18 11:00N 59°27' E 024°46'0 0.0
2019-May-18 09:14N 59°27' E 024°46'0 0.1
2019-May-18 08:59N 59°27' E 024°46'0 0.0
2019-May-18 08:29N 59°27' E 024°46'0 0.0
2019-May-18 07:59N 59°27' E 024°46'0 0.0
2019-May-18 07:29N 59°27' E 024°46'0 0.0
2019-May-18 06:59N 59°27' E 024°46'0 0.0
2019-May-18 06:29N 59°27' E 024°46'0 0.1
2019-May-18 06:00N 59°27' E 024°46'2 4.2
2019-May-18 05:31N 59°29' E 024°45'815.4
2019-May-18 05:00N 59°36' E 024°40'510.6
2019-May-18 04:30N 59°42' E 024°39'611.3
2019-May-18 04:00N 59°47' E 024°43'510.8
2019-May-18 03:30N 59°50' E 024°53'611.4
2019-May-18 03:00N 59°51' E 025°03'611.4
2019-May-18 02:30N 59°52' E 025°15'612.7
2019-May-18 02:01N 59°52' E 025°27'816.5
2019-May-18 01:31N 59°54' E 025°44'816.1
2019-May-18 01:00N 59°57' E 025°59'815.6
2019-May-18 00:30N 59°59' E 026°14'815.7
2019-May-18 00:00N 60°01' E 026°29'815.3
2019-May-17 23:30N 60°01' E 026°44'815.4
2019-May-17 23:00N 59°60' E 026°59'815.2
2019-May-17 22:30N 60°02' E 027°13'815.6
2019-May-17 22:00N 60°06' E 027°27'815.8
2019-May-17 21:31N 60°10' E 027°40'714.7
2019-May-17 21:00N 60°11' E 027°55'815.2
2019-May-17 20:30N 60°09' E 028°10'815.1
2019-May-17 20:00N 60°06' E 028°23'715.0
2019-May-17 19:30N 60°03' E 028°37'815.4
2019-May-17 19:00N 60°03' E 028°53'815.2
2019-May-17 18:30N 60°02' E 029°08'714.2
2019-May-17 18:00N 60°02' E 029°22'510.5
2019-May-17 17:29N 60°01' E 029°33'611.5
2019-May-17 16:58N 59°59' E 029°44'510.9
2019-May-17 16:30N 59°57' E 029°53'5 9.8
2019-May-17 16:01N 59°56' E 030°03'4 8.8
2019-May-17 15:30N 59°57' E 030°11'0 0.2
2019-May-17 14:56N 59°57' E 030°11'0 0.0
2019-May-17 14:26N 59°57' E 030°11'0 0.0
2019-May-17 13:56N 59°57' E 030°11'0 0.0
2019-May-17 13:26N 59°57' E 030°11'0 0.0
2019-May-17 12:56N 59°57' E 030°11'0 0.0
2019-May-17 12:26N 59°57' E 030°11'0 0.0
2019-May-17 11:56N 59°57' E 030°11'0 0.0
2019-May-17 11:26N 59°57' E 030°11'0 0.0
2019-May-17 10:56N 59°57' E 030°11'0 0.0
2019-May-17 10:26N 59°57' E 030°11'0 0.0
2019-May-17 09:56N 59°57' E 030°11'0 0.0
2019-May-17 09:26N 59°57' E 030°11'0 0.0
2019-May-17 08:56N 59°57' E 030°11'0 0.0
2019-May-17 08:26N 59°57' E 030°11'0 0.0
2019-May-17 07:56N 59°57' E 030°11'0 0.0
2019-May-17 07:26N 59°57' E 030°11'0 0.0
2019-May-17 06:56N 59°57' E 030°11'0 0.0
2019-May-17 06:26N 59°57' E 030°11'0 0.0
2019-May-17 05:56N 59°57' E 030°11'0 0.0
2019-May-17 05:26N 59°57' E 030°11'0 0.0
2019-May-17 04:56N 59°57' E 030°11'0 0.0
2019-May-17 04:26N 59°57' E 030°11'0 0.0
2019-May-17 03:56N 59°57' E 030°11'0 0.0
2019-May-17 03:26N 59°57' E 030°11'0 0.0
2019-May-17 02:56N 59°57' E 030°11'0 0.0
2019-May-17 02:26N 59°57' E 030°11'0 0.0
2019-May-17 01:56N 59°57' E 030°11'0 0.0
2019-May-17 01:26N 59°57' E 030°11'0 0.0
2019-May-17 00:56N 59°57' E 030°11'0 0.0
2019-May-17 00:26N 59°57' E 030°11'0 0.0
2019-May-16 23:56N 59°57' E 030°11'0 0.0
2019-May-16 23:26N 59°57' E 030°11'0 0.0
2019-May-16 22:56N 59°57' E 030°11'0 0.0
2019-May-16 22:26N 59°57' E 030°11'0 0.0
2019-May-16 21:56N 59°57' E 030°11'0 0.0
2019-May-16 21:26N 59°57' E 030°11'0 0.0
2019-May-16 20:56N 59°57' E 030°11'0 0.0
2019-May-16 20:26N 59°57' E 030°11'0 0.0
2019-May-16 19:56N 59°57' E 030°11'0 0.0
2019-May-16 19:26N 59°57' E 030°11'0 0.0
2019-May-16 18:56N 59°57' E 030°11'0 0.0
2019-May-16 18:26N 59°57' E 030°11'0 0.0
2019-May-16 17:59N 59°57' E 030°11'0 0.0
2019-May-16 17:28N 59°57' E 030°11'0 0.0
2019-May-16 16:58N 59°57' E 030°11'0 0.0
2019-May-16 16:28N 59°57' E 030°11'0 0.0
2019-May-16 15:58N 59°57' E 030°11'0 0.0
2019-May-16 15:25N 59°57' E 030°11'0 0.0
2019-May-16 14:52N 59°57' E 030°11'0 0.0
2019-May-16 14:28N 59°57' E 030°11'0 0.0
2019-May-16 13:58N 59°57' E 030°11'0 0.0
2019-May-16 13:28N 59°57' E 030°11'0 0.0
2019-May-16 12:58N 59°57' E 030°11'0 0.0
2019-May-16 12:28N 59°57' E 030°11'0 0.0
2019-May-16 11:58N 59°57' E 030°11'0 0.0
2019-May-16 11:25N 59°57' E 030°11'0 0.0
2019-May-16 10:58N 59°57' E 030°11'0 0.0
2019-May-16 10:28N 59°57' E 030°11'0 0.0
2019-May-16 09:58N 59°57' E 030°11'0 0.0
2019-May-16 09:28N 59°57' E 030°11'0 0.0
2019-May-16 08:58N 59°57' E 030°11'0 0.0
2019-May-16 08:28N 59°57' E 030°11'0 0.0
2019-May-16 07:58N 59°57' E 030°11'0 0.0
2019-May-16 07:28N 59°57' E 030°11'0 0.0
2019-May-16 06:58N 59°57' E 030°11'0 0.0
2019-May-16 06:28N 59°57' E 030°11'0 0.0
2019-May-16 05:58N 59°57' E 030°11'0 0.0
2019-May-16 05:28N 59°57' E 030°11'0 0.0
2019-May-16 04:58N 59°57' E 030°11'0 0.0
2019-May-16 04:25N 59°57' E 030°11'0 0.2
2019-May-16 04:00N 59°57' E 030°11'3 5.0
2019-May-16 03:30N 59°57' E 030°06'5 9.4
2019-May-16 03:00N 59°56' E 029°57'710.3
2019-May-16 02:21N 59°59' E 029°45'410.7
2019-May-16 02:00N 60°00' E 029°38'611.5
2019-May-16 01:30N 60°01' E 029°27'510.5
2019-May-16 01:01N 60°02' E 029°17'510.1
2019-May-16 00:31N 60°02' E 029°06'510.2
2019-May-16 00:00N 60°02' E 028°56'510.3
2019-May-15 23:30N 60°02' E 028°46'510.7
2019-May-15 23:00N 60°02' E 028°35'510.6
2019-May-15 22:30N 60°03' E 028°25'510.7
2019-May-15 22:00N 60°07' E 028°16'510.1
2019-May-15 21:30N 60°08' E 028°07'510.8
2019-May-15 21:01N 60°10' E 027°56'510.6
2019-May-15 20:30N 60°11' E 027°46'611.0
2019-May-15 20:00N 60°08' E 027°36'510.9
2019-May-15 19:31N 60°05' E 027°27'510.9
2019-May-15 19:00N 60°02' E 027°17'510.7
2019-May-15 18:31N 59°59' E 027°08'714.4
2019-May-15 18:01N 59°58' E 026°54'816.1
2019-May-15 17:30N 59°59' E 026°38'816.1
2019-May-15 17:00N 59°57' E 026°22'2316.0
2019-May-15 15:36N 59°52' E 025°39'115.8
2019-May-15 15:31N 59°52' E 025°36'815.7
2019-May-15 15:01N 59°55' E 025°21'815.8
2019-May-15 14:31N 59°55' E 025°05'510.9
2019-May-15 14:00N 59°59' E 024°57'612.7
2019-May-15 13:30N 60°05' E 024°58'5 9.6
2019-May-15 13:01N 60°10' E 024°59'0 0.4
2019-May-15 12:29N 60°10' E 024°58'0 0.0
2019-May-15 11:59N 60°10' E 024°58'0 0.0
2019-May-15 11:29N 60°10' E 024°58'0 0.0
2019-May-15 10:59N 60°10' E 024°58'0 0.0
2019-May-15 10:29N 60°10' E 024°58'0 0.1
2019-May-15 10:23N 60°10' E 024°58'0 0.0
2019-May-15 09:59N 60°10' E 024°58'0 0.0
2019-May-15 09:29N 60°10' E 024°58'0 0.2
2019-May-15 09:20N 60°10' E 024°58'0 0.0
2019-May-15 09:07N 60°10' E 024°58'0 0.3
2019-May-15 09:00N 60°10' E 024°58'0 2.0
2019-May-15 08:59N 60°10' E 024°58'3 5.5
2019-May-15 08:30N 60°09' E 025°04'0 3.6
2019-May-15 08:30N 60°09' E 025°04'389.1
2019-May-15 08:29N 60°10' E 024°58'2 4.1
2019-May-15 08:00N 60°08' E 024°60'024.1
2019-May-15 08:00N 60°08' E 024°60'264.9
2019-May-15 07:59N 60°10' E 024°58'0 0.1
2019-May-15 07:29N 60°10' E 024°58'0 3.0
2019-May-15 07:29N 60°10' E 024°58'0 2.5
2019-May-15 07:28N 60°10' E 024°58'0 0.1
2019-May-15 06:59N 60°10' E 024°58'0 0.0
2019-May-15 06:29N 60°10' E 024°58'0 2.2
2019-May-15 06:27N 60°10' E 024°58'0 0.0
2019-May-15 06:14N 60°10' E 024°58'0 0.3
2019-May-15 05:59N 60°10' E 024°58'0 1.4
2019-May-15 05:59N 60°10' E 024°58'0 0.3
2019-May-15 05:54N 60°10' E 024°58'0 0.1
2019-May-15 05:29N 60°10' E 024°58'0 0.1
2019-May-15 05:27N 60°10' E 024°58'0 0.2
2019-May-15 05:26N 60°10' E 024°58'0 0.0
2019-May-15 04:59N 60°10' E 024°58'0 0.0
2019-May-15 04:29N 60°10' E 024°58'0 0.8
2019-May-15 04:00N 60°10' E 024°59'3 6.9
2019-May-15 03:31N 60°06' E 024°59'713.3
2019-May-15 03:01N 59°60' E 024°57'713.9
2019-May-15 02:30N 59°53' E 024°57'510.0
2019-May-15 02:00N 59°48' E 024°54'510.6
2019-May-15 01:30N 59°46' E 024°44'510.6
2019-May-15 01:01N 59°45' E 024°34'510.5
2019-May-15 00:31N 59°44' E 024°24'510.3
2019-May-15 00:00N 59°41' E 024°15'510.4
2019-May-14 23:30N 59°39' E 024°06'510.7
2019-May-14 23:00N 59°39' E 023°55'510.5
2019-May-14 22:30N 59°37' E 023°45'510.5
2019-May-14 22:00N 59°35' E 023°35'510.6
2019-May-14 21:30N 59°34' E 023°25'510.8
2019-May-14 21:00N 59°33' E 023°15'510.6
2019-May-14 20:30N 59°31' E 023°05'510.6
2019-May-14 20:00N 59°30' E 022°55'510.9
2019-May-14 19:30N 59°28' E 022°45'510.7
2019-May-14 19:00N 59°26' E 022°35'510.8
2019-May-14 18:30N 59°23' E 022°26'612.5
2019-May-14 18:01N 59°24' E 022°14'815.9
2019-May-14 17:31N 59°27' E 021°59'815.7
2019-May-14 17:00N 59°29' E 021°44'815.5
2019-May-14 16:31N 59°31' E 021°29'815.6
2019-May-14 16:01N 59°33' E 021°15'1015.7
2019-May-14 15:24N 59°36' E 020°57'3215.3
2019-May-14 13:20N 59°45' E 019°57'515.8
2019-May-14 13:01N 59°46' E 019°47'815.5
2019-May-14 12:31N 59°47' E 019°32'713.4
2019-May-14 12:00N 59°45' E 019°18'714.8
2019-May-14 11:30N 59°43' E 019°05'612.3
2019-May-14 11:00N 59°39' E 018°55'611.5
2019-May-14 10:30N 59°36' E 018°45'611.0
2019-May-14 09:59N 59°33' E 018°36'5 9.6
2019-May-14 09:30N 59°30' E 018°28'4 7.5
2019-May-14 09:00N 59°27' E 018°25'4 7.4
2019-May-14 08:30N 59°23' E 018°27'111.6
2019-May-14 08:26N 59°22' E 018°27'3 7.2
2019-May-14 08:00N 59°22' E 018°21'511.6
2019-May-14 07:36N 59°20' E 018°12'110.3
2019-May-14 07:30N 59°19' E 018°11'015.9
2019-May-14 07:30N 59°19' E 018°10'3 5.3
2019-May-14 06:58N 59°19' E 018°05'0 0.0
2019-May-14 06:28N 59°19' E 018°05'0 0.0
2019-May-14 05:58N 59°19' E 018°05'0 0.0
2019-May-14 05:28N 59°19' E 018°05'0 0.0
2019-May-14 04:58N 59°19' E 018°05'0 0.0
2019-May-14 04:28N 59°19' E 018°05'0 0.0
2019-May-14 03:58N 59°19' E 018°05'0 0.0
2019-May-14 03:28N 59°19' E 018°05'0 0.0
2019-May-14 02:58N 59°19' E 018°05'0 0.0
2019-May-14 02:28N 59°19' E 018°05'0 0.0
2019-May-14 01:58N 59°19' E 018°05'0 0.0
2019-May-14 01:28N 59°19' E 018°05'0 0.0
2019-May-14 00:58N 59°19' E 018°05'0 0.0
2019-May-14 00:28N 59°19' E 018°05'0 0.0
2019-May-13 23:58N 59°19' E 018°05'0 0.0
2019-May-13 23:28N 59°19' E 018°05'0 0.0
2019-May-13 22:58N 59°19' E 018°05'0 0.0
2019-May-13 22:28N 59°19' E 018°05'0 0.0
2019-May-13 21:58N 59°19' E 018°05'0 0.0
2019-May-13 21:28N 59°19' E 018°05'0 0.0
2019-May-13 20:58N 59°19' E 018°05'0 0.0
2019-May-13 20:28N 59°19' E 018°05'0 0.0
2019-May-13 19:58N 59°19' E 018°05'0 0.0
2019-May-13 19:28N 59°19' E 018°05'0 0.0
2019-May-13 18:58N 59°19' E 018°05'0 0.0
2019-May-13 18:28N 59°19' E 018°05'0 0.0
2019-May-13 17:58N 59°19' E 018°05'0 0.0
2019-May-13 17:28N 59°19' E 018°05'0 0.0
2019-May-13 16:58N 59°19' E 018°05'0 0.0
2019-May-13 16:28N 59°19' E 018°05'0 5.6
2019-May-13 16:27N 59°19' E 018°05'0 0.0
2019-May-13 16:00N 59°19' E 018°05'0 3.2
2019-May-13 15:58N 59°19' E 018°05'0 0.6
2019-May-13 15:30N 59°19' E 018°05'0 8.8
2019-May-13 15:28N 59°19' E 018°05'0 0.0
2019-May-13 14:58N 59°19' E 018°05'058.7
2019-May-13 14:58N 59°19' E 018°05'0 0.0
2019-May-13 14:30N 59°19' E 018°05'0 8.9
2019-May-13 14:28N 59°19' E 018°05'0 0.1
2019-May-13 14:07N 59°19' E 018°05'0 0.1
2019-May-13 14:00N 59°19' E 018°05'031.7
2019-May-13 14:00N 59°19' E 018°05'0 2.1
2019-May-13 13:58N 59°19' E 018°05'0 0.0
2019-May-13 13:30N 59°19' E 018°05'0 0.4
2019-May-13 13:28N 59°19' E 018°05'0 0.6
2019-May-13 13:25N 59°19' E 018°05'2 4.5
2019-May-13 13:00N 59°19' E 018°09'013.4
2019-May-13 13:00N 59°19' E 018°09'271.1
2019-May-13 12:58N 59°19' E 018°05'0 0.0
2019-May-13 12:28N 59°19' E 018°05'246.5
2019-May-13 12:25N 59°19' E 018°09'014.6
2019-May-13 12:25N 59°19' E 018°09'2 5.4
2019-May-13 12:00N 59°19' E 018°05'0 0.3
2019-May-13 11:58N 59°19' E 018°05'0 9.3
2019-May-13 11:58N 59°19' E 018°05'0 0.0
2019-May-13 11:30N 59°19' E 018°05'0 0.0
2019-May-13 11:30N 59°19' E 018°05'0 0.5
2019-May-13 11:28N 59°19' E 018°05'0 0.0
2019-May-13 10:58N 59°19' E 018°05'0 1.8
2019-May-13 10:57N 59°19' E 018°05'0 0.2
2019-May-13 10:44N 59°19' E 018°05'0 0.7
2019-May-13 10:30N 59°19' E 018°05'0 4.5
2019-May-13 10:28N 59°19' E 018°05'0 0.0
2019-May-13 09:58N 59°19' E 018°05'0 0.4
2019-May-13 09:46N 59°19' E 018°05'0 0.3
2019-May-13 09:28N 59°19' E 018°05'0 0.0
2019-May-13 08:58N 59°19' E 018°05'0 0.0
2019-May-13 08:28N 59°19' E 018°05'0 0.0
2019-May-13 07:58N 59°19' E 018°05'0 0.0
2019-May-13 07:28N 59°19' E 018°05'0 0.0
2019-May-13 07:00N 59°19' E 018°05'2 4.0
2019-May-13 06:30N 59°19' E 018°09'611.4
2019-May-13 06:01N 59°23' E 018°18'5 9.6
2019-May-13 05:31N 59°22' E 018°27'5 9.7
2019-May-13 05:00N 59°27' E 018°25'612.0
2019-May-13 04:30N 59°23' E 018°34'612.3
2019-May-13 04:00N 59°22' E 018°46'612.4
2019-May-13 03:30N 59°17' E 018°54'611.7
2019-May-13 03:00N 59°14' E 019°04'5 9.2
2019-May-13 02:27N 59°10' E 019°10'510.1
2019-May-13 01:57N 59°05' E 019°08'17010.4
2019-May-12 09:35N 56°28' E 017°07'111.4
2019-May-12 09:29N 56°27' E 017°07'611.5
2019-May-12 09:00N 56°22' E 017°03'611.5
2019-May-12 08:30N 56°17' E 016°59'611.5
2019-May-12 08:00N 56°11' E 016°56'611.5
2019-May-12 07:30N 56°06' E 016°52'611.0
2019-May-12 07:00N 56°02' E 016°45'611.6
2019-May-12 06:30N 55°59' E 016°36'611.5
2019-May-12 06:00N 55°56' E 016°27'611.5
2019-May-12 05:30N 55°53' E 016°18'611.6
2019-May-12 05:00N 55°50' E 016°09'611.5
2019-May-12 04:30N 55°47' E 016°00'611.6
2019-May-12 04:00N 55°44' E 015°52'611.4
2019-May-12 03:30N 55°42' E 015°43'611.3
2019-May-12 03:00N 55°39' E 015°34'611.4
2019-May-12 02:30N 55°37' E 015°25'611.4
2019-May-12 02:00N 55°34' E 015°16'611.4
2019-May-12 01:30N 55°32' E 015°07'611.4
2019-May-12 01:00N 55°29' E 014°57'611.4
2019-May-12 00:30N 55°27' E 014°48'611.4
2019-May-12 00:00N 55°24' E 014°39'711.4
2019-May-11 23:23N 55°19' E 014°32'411.4
2019-May-11 23:00N 55°15' E 014°27'611.4
2019-May-11 22:30N 55°11' E 014°20'610.3
2019-May-11 21:54N 55°10' E 014°09'18991826.4
2019-May-11 20:52N 27°36' E 034°51'19241366.5
2019-May-11 19:27N 55°13' E 013°08'715.8
2019-May-11 19:00N 55°14' E 012°56'815.8
2019-May-11 18:31N 55°17' E 012°43'713.0
2019-May-11 18:00N 55°23' E 012°39'714.4
2019-May-11 17:30N 55°30' E 012°42'611.4
2019-May-11 17:00N 55°36' E 012°42'612.7
2019-May-11 16:30N 55°42' E 012°41'3 5.5
2019-May-11 16:00N 55°42' E 012°36'0 0.1
2019-May-11 15:29N 55°42' E 012°36'0 0.0
2019-May-11 14:59N 55°42' E 012°36'0 0.0
2019-May-11 14:29N 55°42' E 012°36'0 0.6
2019-May-11 14:25N 55°42' E 012°36'0 0.4
2019-May-11 14:02N 55°42' E 012°36'015.5
2019-May-11 14:00N 55°42' E 012°36'122.5
2019-May-11 13:59N 55°42' E 012°36'1 2.0
2019-May-11 13:37N 55°41' E 012°36'1 5.2
2019-May-11 13:29N 55°42' E 012°36'0 6.1
2019-May-11 13:26N 55°42' E 012°36'0 9.1
2019-May-11 13:25N 55°42' E 012°36'0 0.4
2019-May-11 13:00N 55°42' E 012°36'017.4
2019-May-11 12:59N 55°42' E 012°36'155.0
2019-May-11 12:58N 55°42' E 012°36'3 6.4
2019-May-11 12:30N 55°40' E 012°41'063.8
2019-May-11 12:30N 55°40' E 012°41'3122.0
2019-May-11 12:29N 55°42' E 012°36'0 0.0
2019-May-11 11:59N 55°42' E 012°36'0 1.7
2019-May-11 11:58N 55°42' E 012°36'0 0.1
2019-May-11 11:29N 55°42' E 012°36'0 0.0
2019-May-11 10:59N 55°42' E 012°36'0 0.0
2019-May-11 10:29N 55°42' E 012°36'0 0.0
2019-May-11 09:59N 55°42' E 012°36'0 0.1
2019-May-11 09:29N 55°42' E 012°36'018.5
2019-May-11 09:29N 55°42' E 012°36'0 0.1
2019-May-11 08:59N 55°42' E 012°36'0 3.8
2019-May-11 08:59N 55°42' E 012°36'0 0.0
2019-May-11 08:29N 55°42' E 012°36'0 0.1
2019-May-11 08:05N 55°42' E 012°36'0 0.4
2019-May-11 08:00N 55°42' E 012°36'0 4.0
2019-May-11 07:59N 55°42' E 012°36'0 0.0
2019-May-11 07:29N 55°42' E 012°36'0 0.0
2019-May-11 06:59N 55°42' E 012°36'0 0.0
2019-May-11 06:29N 55°42' E 012°36'0 0.8
2019-May-11 06:00N 55°42' E 012°37'5 9.5
2019-May-11 05:30N 55°46' E 012°41'612.4
2019-May-11 05:01N 55°52' E 012°40'713.2
2019-May-11 04:31N 55°59' E 012°41'713.5
2019-May-11 04:01N 56°05' E 012°35'714.8
2019-May-11 03:30N 56°10' E 012°25'5114.6
2019-May-11 00:03N 56°55' E 011°45'117.6
2019-May-10 23:59N 56°56' E 011°44'817.3
2019-May-10 23:31N 57°04' E 011°40'917.3
2019-May-10 23:01N 57°12' E 011°35'917.4
2019-May-10 22:31N 57°20' E 011°29'917.2
2019-May-10 22:01N 57°28' E 011°21'917.2
2019-May-10 21:31N 57°34' E 011°09'917.6
2019-May-10 21:01N 57°40' E 010°58'917.3
2019-May-10 20:31N 57°46' E 010°46'917.1
2019-May-10 20:01N 57°51' E 010°33'918.4
2019-May-10 19:31N 57°50' E 010°16'918.2
2019-May-10 19:00N 57°48' E 009°59'917.9
2019-May-10 18:30N 57°45' E 009°43'917.8
2019-May-10 18:00N 57°43' E 009°27'917.8
2019-May-10 17:30N 57°40' E 009°11'917.7
2019-May-10 17:01N 57°38' E 008°55'917.7
2019-May-10 16:31N 57°35' E 008°39'917.5
2019-May-10 16:00N 57°32' E 008°24'917.1
2019-May-10 15:30N 57°29' E 008°10'816.8
2019-May-10 15:00N 57°26' E 007°55'816.7
2019-May-10 14:30N 57°23' E 007°41'816.2
2019-May-10 14:01N 57°20' E 007°27'816.4
2019-May-10 13:30N 57°17' E 007°12'816.3
2019-May-10 13:01N 57°14' E 006°58'816.5
2019-May-10 12:30N 57°12' E 006°44'816.3
2019-May-10 12:00N 57°09' E 006°30'1116.1
2019-May-10 11:19N 57°05' E 006°11'516.1
2019-May-10 11:00N 57°03' E 006°02'  

Dump ship's entire track history